Weather at Hartsfield Jackson Atlanta International Airport

Public forecast

Using degrees Fahrenheit for public forecast. Weather courtesy of forecast.io.

Current aviation weather report (METAR) for Hartsfield Jackson Atlanta International Airport

Retrieved 2022/07/06 02:52 UTC (24 minutes ago):

KATL 060252Z 31004KT 10SM FEW040 BKN200 BKN250 28/22 A3006 RMK AO2 SLP168 CONS LTG DSNT E-SE CB DSNT NE E-SE T02780222 53013

Aviation forecast (TAF) for Hartsfield Jackson Atlanta International Airport

Retrieved 2022-07-06 00:48 UTC (2 hours ago):

TAF KATL 052347Z 0600/0706 19007KT P6SM VCSH BKN040 BKN070 BKN250 TEMPO 0600/0602 VRB10G20KT 4SM TSRA BR BKN025CB FM060200 19003KT P6SM FEW060 FM060800 25003KT P6SM FEW060 FM061400 27006KT P6SM SCT025 FM061700 26007KT P6SM VCSH BKN040 PROB30 0618/0624 VRB10G20KT 4SM TSRA BR BKN030CB FM070200 24004KT P6SM FEW060